Ben Franklin — WDF5984 — position and weather

sailwx.info

Track history (hours):
 
Tides and Currents Weather Stations Pressure Air Temp Water Temp Dewpoint Dewpoint Depression Visibility Wind Speed Wind Dir Waves Ship Positions

Ben Franklin

Owner: Christopher Columbus LLC, Philadelphia, PA. More information available from US FCC via Universal Licensing System and Coast Guard Vessel Documentation Center.

Last reported at 2018-Jun-22 05:58 UTC. Time now 2018-Jun-22 13:20 UTC.
Position N 39°57' W 075°08'.

Type: Ship. MMSI: 367469370.

Date/timePositionNaut miles runAvg speedWind from/ knotsBaromVisibWave heightAir tempDewpointWater temp
2018-Jun-22 05:58N 39°57' W 075°08'1 3.2
2018-Jun-22 05:30N 39°56' W 075°08'3 5.3
2018-Jun-22 05:00N 39°53' W 075°08'2 3.9
2018-Jun-22 04:30N 39°53' W 075°11'3 5.6
2018-Jun-22 04:00N 39°55' W 075°08'3 5.5
2018-Jun-22 03:30N 39°57' W 075°08'0 0.0
2018-Jun-22 03:00N 39°57' W 075°08'0 0.0
2018-Jun-22 02:28N 39°57' W 075°08'0 0.0
2018-Jun-21 18:54N 39°57' W 075°08'1 1.3
2018-Jun-21 18:30N 39°57' W 075°08'1 3.0
2018-Jun-21 18:00N 39°55' W 075°08'2 4.8
2018-Jun-21 17:31N 39°53' W 075°09'1 2.4
2018-Jun-21 17:00N 39°53' W 075°10'3 5.5
2018-Jun-21 16:31N 39°55' W 075°08'2 4.9
2018-Jun-21 16:00N 39°57' W 075°08'0 0.0
2018-Jun-21 15:30N 39°57' W 075°08'  
2018-Jun-18 04:08N 39°57' W 075°08'0 0.0
2018-Jun-18 04:00N 39°57' W 075°08'2 4.8
2018-Jun-18 03:30N 39°55' W 075°08'2 5.0
2018-Jun-18 03:00N 39°53' W 075°09'0 0.8
2018-Jun-18 02:30N 39°53' W 075°09'3 6.3
2018-Jun-18 02:00N 39°56' W 075°08'1 2.7
2018-Jun-18 01:30N 39°57' W 075°08'0 0.0
2018-Jun-18 01:00N 39°57' W 075°08'0 0.0
2018-Jun-18 00:30N 39°57' W 075°08'2 3.7
2018-Jun-18 00:00N 39°56' W 075°08'1 1.6
2018-Jun-17 23:30N 39°55' W 075°08'3 5.2
2018-Jun-17 23:00N 39°57' W 075°08'0 0.0
2018-Jun-17 22:30N 39°57' W 075°08'0 0.0
2018-Jun-17 22:01N 39°57' W 075°08'0 0.0
2018-Jun-17 21:31N 39°57' W 075°08'1 1.6
2018-Jun-17 21:00N 39°57' W 075°08'1 1.9
2018-Jun-17 20:31N 39°56' W 075°08'2 3.4
2018-Jun-17 20:00N 39°57' W 075°08'0 0.0
2018-Jun-17 19:29N 39°57' W 075°08'0 0.0
2018-Jun-17 19:00N 39°57' W 075°08'0 0.0
2018-Jun-17 18:30N 39°57' W 075°08'3 5.5
2018-Jun-17 18:00N 39°55' W 075°08'2 3.4
2018-Jun-17 17:30N 39°56' W 075°08'1 2.1
2018-Jun-17 17:01N 39°57' W 075°08'0 0.0
2018-Jun-17 16:30N 39°57' W 075°08'0 0.0
2018-Jun-17 01:03N 39°57' W 075°08'0 0.0
2018-Jun-17 01:00N 39°57' W 075°08'2 3.9
2018-Jun-17 00:30N 39°55' W 075°08'3 5.3
2018-Jun-17 00:00N 39°53' W 075°09'1 1.9
2018-Jun-16 23:30N 39°53' W 075°10'2 4.9
2018-Jun-16 23:00N 39°55' W 075°08'3 5.3
2018-Jun-16 22:30N 39°57' W 075°08'0 0.0
2018-Jun-16 22:00N 39°57' W 075°08'0 0.0
2018-Jun-16 21:31N 39°57' W 075°08'0 0.0
2018-Jun-16 21:00N 39°57' W 075°08'0 0.6
2018-Jun-16 20:30N 39°57' W 075°08'3 5.6
2018-Jun-16 20:00N 39°54' W 075°08'3 5.5
2018-Jun-16 19:31N 39°53' W 075°11'2 4.6
2018-Jun-16 19:01N 39°54' W 075°08'3 5.3
2018-Jun-16 18:30N 39°56' W 075°08'1 1.9
2018-Jun-16 18:00N 39°57' W 075°08'0 0.0
2018-Jun-16 17:30N 39°57' W 075°08'0 0.0
2018-Jun-15 05:03N 39°57' W 075°08'0 0.1
2018-Jun-15 05:00N 39°57' W 075°08'2 4.0
2018-Jun-15 04:30N 39°55' W 075°08'3 5.7
2018-Jun-15 04:00N 39°53' W 075°10'2 3.1
2018-Jun-15 03:30N 39°54' W 075°08'3 5.4
2018-Jun-15 03:00N 39°57' W 075°08'1 1.8
2018-Jun-15 02:31N 39°57' W 075°08'0 0.0
2018-Jun-15 02:00N 39°57' W 075°08'0 0.0
2018-Jun-15 01:31N 39°57' W 075°08'0 0.0
2018-Jun-14 21:52N 39°57' W 075°08'2 4.5
2018-Jun-14 21:30N 39°56' W 075°08'1 1.8
2018-Jun-14 21:00N 39°55' W 075°08'3 5.2
2018-Jun-14 20:30N 39°57' W 075°08'0 0.0
2018-Jun-14 20:00N 39°57' W 075°08'  
Track history (hours):
 
Tides and Currents Weather Stations Pressure Air Temp Water Temp Dewpoint Dewpoint Depression Visibility Wind Speed Wind Dir Waves Ship Positions

Ben Franklin

Owner: Christopher Columbus LLC, Philadelphia, PA. More information available from US FCC via Universal Licensing System and Coast Guard Vessel Documentation Center.

Last reported at 2018-Jun-22 05:58 UTC. Time now 2018-Jun-22 13:21 UTC.
Position N 39°57' W 075°08'.

Type: Ship. MMSI: 367469370.

Date/timePositionNaut miles runAvg speedWind from/ knotsBaromVisibWave heightAir tempDewpointWater temp
2018-Jun-22 05:58N 39°57' W 075°08'1 3.2
2018-Jun-22 05:30N 39°56' W 075°08'3 5.3
2018-Jun-22 05:00N 39°53' W 075°08'2 3.9
2018-Jun-22 04:30N 39°53' W 075°11'3 5.6
2018-Jun-22 04:00N 39°55' W 075°08'3 5.5
2018-Jun-22 03:30N 39°57' W 075°08'0 0.0
2018-Jun-22 03:00N 39°57' W 075°08'0 0.0
2018-Jun-22 02:28N 39°57' W 075°08'0 0.0
2018-Jun-21 18:54N 39°57' W 075°08'1 1.3
2018-Jun-21 18:30N 39°57' W 075°08'1 3.0
2018-Jun-21 18:00N 39°55' W 075°08'2 4.8
2018-Jun-21 17:31N 39°53' W 075°09'1 2.4
2018-Jun-21 17:00N 39°53' W 075°10'3 5.5
2018-Jun-21 16:31N 39°55' W 075°08'2 4.9
2018-Jun-21 16:00N 39°57' W 075°08'0 0.0
2018-Jun-21 15:30N 39°57' W 075°08'  
2018-Jun-18 04:08N 39°57' W 075°08'0 0.0
2018-Jun-18 04:00N 39°57' W 075°08'2 4.8
2018-Jun-18 03:30N 39°55' W 075°08'2 5.0
2018-Jun-18 03:00N 39°53' W 075°09'0 0.8
2018-Jun-18 02:30N 39°53' W 075°09'3 6.3
2018-Jun-18 02:00N 39°56' W 075°08'1 2.7
2018-Jun-18 01:30N 39°57' W 075°08'0 0.0
2018-Jun-18 01:00N 39°57' W 075°08'0 0.0
2018-Jun-18 00:30N 39°57' W 075°08'2 3.7
2018-Jun-18 00:00N 39°56' W 075°08'1 1.6
2018-Jun-17 23:30N 39°55' W 075°08'3 5.2
2018-Jun-17 23:00N 39°57' W 075°08'0 0.0
2018-Jun-17 22:30N 39°57' W 075°08'0 0.0
2018-Jun-17 22:01N 39°57' W 075°08'0 0.0
2018-Jun-17 21:31N 39°57' W 075°08'1 1.6
2018-Jun-17 21:00N 39°57' W 075°08'1 1.9
2018-Jun-17 20:31N 39°56' W 075°08'2 3.4
2018-Jun-17 20:00N 39°57' W 075°08'0 0.0
2018-Jun-17 19:29N 39°57' W 075°08'0 0.0
2018-Jun-17 19:00N 39°57' W 075°08'0 0.0
2018-Jun-17 18:30N 39°57' W 075°08'3 5.5
2018-Jun-17 18:00N 39°55' W 075°08'2 3.4
2018-Jun-17 17:30N 39°56' W 075°08'1 2.1
2018-Jun-17 17:01N 39°57' W 075°08'0 0.0
2018-Jun-17 16:30N 39°57' W 075°08'0 0.0
2018-Jun-17 01:03N 39°57' W 075°08'0 0.0
2018-Jun-17 01:00N 39°57' W 075°08'2 3.9
2018-Jun-17 00:30N 39°55' W 075°08'3 5.3
2018-Jun-17 00:00N 39°53' W 075°09'1 1.9
2018-Jun-16 23:30N 39°53' W 075°10'2 4.9
2018-Jun-16 23:00N 39°55' W 075°08'3 5.3
2018-Jun-16 22:30N 39°57' W 075°08'0 0.0
2018-Jun-16 22:00N 39°57' W 075°08'0 0.0
2018-Jun-16 21:31N 39°57' W 075°08'0 0.0
2018-Jun-16 21:00N 39°57' W 075°08'0 0.6
2018-Jun-16 20:30N 39°57' W 075°08'3 5.6
2018-Jun-16 20:00N 39°54' W 075°08'3 5.5
2018-Jun-16 19:31N 39°53' W 075°11'2 4.6
2018-Jun-16 19:01N 39°54' W 075°08'3 5.3
2018-Jun-16 18:30N 39°56' W 075°08'1 1.9
2018-Jun-16 18:00N 39°57' W 075°08'0 0.0
2018-Jun-16 17:30N 39°57' W 075°08'0 0.0
2018-Jun-15 05:03N 39°57' W 075°08'0 0.1
2018-Jun-15 05:00N 39°57' W 075°08'2 4.0
2018-Jun-15 04:30N 39°55' W 075°08'3 5.7
2018-Jun-15 04:00N 39°53' W 075°10'2 3.1
2018-Jun-15 03:30N 39°54' W 075°08'3 5.4
2018-Jun-15 03:00N 39°57' W 075°08'1 1.8
2018-Jun-15 02:31N 39°57' W 075°08'0 0.0
2018-Jun-15 02:00N 39°57' W 075°08'0 0.0
2018-Jun-15 01:31N 39°57' W 075°08'0 0.0
2018-Jun-14 21:52N 39°57' W 075°08'2 4.5
2018-Jun-14 21:30N 39°56' W 075°08'1 1.8
2018-Jun-14 21:00N 39°55' W 075°08'3 5.2
2018-Jun-14 20:30N 39°57' W 075°08'0 0.0
2018-Jun-14 20:00N 39°57' W 075°08'  

Dump ship's entire track history